Terminal Aerodrome Forecast
Issued by NWS Grand Forks, ND

Home | Current Version | Previous Version | Text Only | Print | Product List | Glossary On
Versions: 1 2 3 4 5 6 7 8 9 10 11 12 13 14 15 16
394
FTUS43 KFGF 271359 AAA
TAFGFK
TAF AMD
KGFK 271359Z 2714/2812 18017G25KT P6SM FEW180 OVC250
     FM280100 16011KT P6SM SCT100
     FM280600 15011KT P6SM VCSH BKN080=

USA.gov is the U.S. government's official web portal to all federal, state and local government web resources and services.